sensor_id;sensor_type;location;lat;lon;timestamp;pressure;altitude;pressure_sealevel;temperature;humidity
72465;BME280;60471;52.150;4.508;2023-06-22T00:01:18;101727.56;;;19.74;74.75
72465;BME280;60471;52.150;4.508;2023-06-22T00:03:44;101727.13;;;19.80;74.52
72465;BME280;60471;52.150;4.508;2023-06-22T00:06:10;101742.00;;;19.84;74.57
72465;BME280;60471;52.150;4.508;2023-06-22T00:08:37;101738.56;;;19.82;74.79
72465;BME280;60471;52.150;4.508;2023-06-22T00:11:03;101734.66;;;19.62;76.11
72465;BME280;60471;52.150;4.508;2023-06-22T00:13:29;101729.19;;;19.63;76.37
72465;BME280;60471;52.150;4.508;2023-06-22T00:15:55;101723.28;;;19.71;75.65
72465;BME280;60471;52.150;4.508;2023-06-22T00:18:21;101722.00;;;19.77;75.53
72465;BME280;60471;52.150;4.508;2023-06-22T00:20:48;101727.34;;;19.77;75.60
72465;BME280;60471;52.150;4.508;2023-06-22T00:23:14;101724.13;;;19.72;75.96
72465;BME280;60471;52.150;4.508;2023-06-22T00:25:43;101722.47;;;19.58;76.14
72465;BME280;60471;52.150;4.508;2023-06-22T00:28:09;101719.13;;;19.41;77.19
72465;BME280;60471;52.150;4.508;2023-06-22T00:30:35;101721.25;;;19.49;77.02
72465;BME280;60471;52.150;4.508;2023-06-22T00:33:02;101720.06;;;19.53;76.86
72465;BME280;60471;52.150;4.508;2023-06-22T00:35:28;101720.09;;;19.40;77.40
72465;BME280;60471;52.150;4.508;2023-06-22T00:37:55;101717.41;;;19.40;77.33
72465;BME280;60471;52.150;4.508;2023-06-22T00:40:27;101715.41;;;19.57;76.71
72465;BME280;60471;52.150;4.508;2023-06-22T00:42:55;101712.50;;;19.47;76.57
72465;BME280;60471;52.150;4.508;2023-06-22T00:45:24;101718.16;;;19.42;76.71
72465;BME280;60471;52.150;4.508;2023-06-22T00:47:56;101712.50;;;19.60;76.40
72465;BME280;60471;52.150;4.508;2023-06-22T00:50:25;101720.41;;;19.61;76.08
72465;BME280;60471;52.150;4.508;2023-06-22T00:52:55;101709.28;;;19.67;75.97
72465;BME280;60471;52.150;4.508;2023-06-22T00:55:23;101710.34;;;19.65;76.17
72465;BME280;60471;52.150;4.508;2023-06-22T00:57:52;101702.53;;;19.62;76.17
72465;BME280;60471;52.150;4.508;2023-06-22T01:00:23;101701.56;;;19.63;75.60
72465;BME280;60471;52.150;4.508;2023-06-22T01:02:52;101706.28;;;19.59;76.20
72465;BME280;60471;52.150;4.508;2023-06-22T01:05:20;101706.38;;;19.71;75.99
72465;BME280;60471;52.150;4.508;2023-06-22T01:16:44;101689.00;;;19.76;75.14
72465;BME280;60471;52.150;4.508;2023-06-22T01:19:25;101684.75;;;19.61;76.19
72465;BME280;60471;52.150;4.508;2023-06-22T01:22:02;101695.03;;;19.54;76.44
72465;BME280;60471;52.150;4.508;2023-06-22T01:30:42;101694.59;;;19.60;75.81
72465;BME280;60471;52.150;4.508;2023-06-22T01:33:12;101698.03;;;19.62;75.75
72465;BME280;60471;52.150;4.508;2023-06-22T01:35:40;101692.34;;;19.54;76.46
72465;BME280;60471;52.150;4.508;2023-06-22T01:38:08;101691.69;;;19.63;76.34
72465;BME280;60471;52.150;4.508;2023-06-22T01:40:36;101682.91;;;19.61;75.80
72465;BME280;60471;52.150;4.508;2023-06-22T01:43:03;101690.53;;;19.55;76.19
72465;BME280;60471;52.150;4.508;2023-06-22T01:45:30;101686.47;;;19.49;75.83
72465;BME280;60471;52.150;4.508;2023-06-22T01:47:57;101692.34;;;19.54;76.16
72465;BME280;60471;52.150;4.508;2023-06-22T01:50:24;101690.97;;;19.49;75.70
72465;BME280;60471;52.150;4.508;2023-06-22T01:52:50;101679.94;;;19.40;76.29
72465;BME280;60471;52.150;4.508;2023-06-22T01:55:16;101683.28;;;19.44;76.17
72465;BME280;60471;52.150;4.508;2023-06-22T01:57:43;101685.28;;;19.40;76.61
72465;BME280;60471;52.150;4.508;2023-06-22T02:00:15;101685.28;;;19.40;76.15
72465;BME280;60471;52.150;4.508;2023-06-22T02:02:57;101691.31;;;19.44;76.33
72465;BME280;60471;52.150;4.508;2023-06-22T02:05:36;101691.22;;;19.33;76.80
72465;BME280;60471;52.150;4.508;2023-06-22T02:08:11;101679.44;;;19.23;77.64
72465;BME280;60471;52.150;4.508;2023-06-22T02:10:44;101683.50;;;19.28;77.14
72465;BME280;60471;52.150;4.508;2023-06-22T02:13:13;101685.00;;;19.32;76.85
72465;BME280;60471;52.150;4.508;2023-06-22T02:15:40;101683.34;;;19.42;76.85
72465;BME280;60471;52.150;4.508;2023-06-22T02:18:07;101673.63;;;19.41;76.88
72465;BME280;60471;52.150;4.508;2023-06-22T02:20:37;101679.16;;;19.51;76.41
72465;BME280;60471;52.150;4.508;2023-06-22T02:23:05;101673.19;;;19.48;76.37
72465;BME280;60471;52.150;4.508;2023-06-22T02:25:33;101671.50;;;19.34;76.72
72465;BME280;60471;52.150;4.508;2023-06-22T02:27:59;101677.41;;;19.26;77.38
72465;BME280;60471;52.150;4.508;2023-06-22T02:30:26;101669.91;;;19.19;77.35
72465;BME280;60471;52.150;4.508;2023-06-22T02:32:52;101677.06;;;19.18;78.02
72465;BME280;60471;52.150;4.508;2023-06-22T02:35:28;101665.41;;;19.19;77.75
72465;BME280;60471;52.150;4.508;2023-06-22T02:37:59;101665.84;;;19.26;77.87
72465;BME280;60471;52.150;4.508;2023-06-22T02:40:27;101673.97;;;19.24;77.84
72465;BME280;60471;52.150;4.508;2023-06-22T02:42:53;101671.31;;;19.24;78.27
72465;BME280;60471;52.150;4.508;2023-06-22T02:45:19;101663.16;;;19.26;77.76
72465;BME280;60471;52.150;4.508;2023-06-22T02:47:46;101676.56;;;19.13;78.39
72465;BME280;60471;52.150;4.508;2023-06-22T02:50:13;101678.78;;;19.19;78.02
72465;BME280;60471;52.150;4.508;2023-06-22T02:52:41;101666.38;;;19.18;77.85
72465;BME280;60471;52.150;4.508;2023-06-22T02:55:07;101670.34;;;19.13;78.11
72465;BME280;60471;52.150;4.508;2023-06-22T02:57:34;101672.91;;;19.14;78.37
72465;BME280;60471;52.150;4.508;2023-06-22T03:00:03;101672.59;;;19.06;78.86
72465;BME280;60471;52.150;4.508;2023-06-22T03:02:43;101672.16;;;18.99;79.08
72465;BME280;60471;52.150;4.508;2023-06-22T03:05:10;101683.41;;;19.04;79.52
72465;BME280;60471;52.150;4.508;2023-06-22T03:07:40;101674.31;;;19.07;79.56
72465;BME280;60471;52.150;4.508;2023-06-22T03:10:11;101673.22;;;19.09;79.85
72465;BME280;60471;52.150;4.508;2023-06-22T03:12:39;101671.31;;;19.11;79.17
72465;BME280;60471;52.150;4.508;2023-06-22T03:15:12;101670.56;;;19.22;78.98
72465;BME280;60471;52.150;4.508;2023-06-22T03:17:39;101675.69;;;19.25;78.38
72465;BME280;60471;52.150;4.508;2023-06-22T03:20:08;101684.91;;;19.21;78.52
72465;BME280;60471;52.150;4.508;2023-06-22T03:22:40;101669.19;;;19.04;78.92
72465;BME280;60471;52.150;4.508;2023-06-22T03:25:08;101657.84;;;19.13;78.69
72465;BME280;60471;52.150;4.508;2023-06-22T03:27:42;101658.91;;;19.10;78.50
72465;BME280;60471;52.150;4.508;2023-06-22T03:30:14;101658.03;;;19.10;78.52
72465;BME280;60471;52.150;4.508;2023-06-22T03:32:40;101641.91;;;19.11;78.24
72465;BME280;60471;52.150;4.508;2023-06-22T03:35:06;101646.28;;;19.13;78.32
72465;BME280;60471;52.150;4.508;2023-06-22T03:37:33;101637.06;;;19.04;78.85
72465;BME280;60471;52.150;4.508;2023-06-22T03:39:59;101645.13;;;18.91;79.02
72465;BME280;60471;52.150;4.508;2023-06-22T03:42:26;101640.63;;;18.92;79.59
72465;BME280;60471;52.150;4.508;2023-06-22T03:44:52;101645.41;;;18.99;79.22
72465;BME280;60471;52.150;4.508;2023-06-22T03:47:19;101640.50;;;19.06;79.08
72465;BME280;60471;52.150;4.508;2023-06-22T03:49:45;101648.22;;;19.10;79.16
72465;BME280;60471;52.150;4.508;2023-06-22T03:52:11;101645.84;;;19.06;79.24
72465;BME280;60471;52.150;4.508;2023-06-22T03:54:37;101642.94;;;19.09;79.09
72465;BME280;60471;52.150;4.508;2023-06-22T03:57:04;101638.25;;;19.13;79.48
72465;BME280;60471;52.150;4.508;2023-06-22T03:59:31;101638.22;;;19.25;78.59
72465;BME280;60471;52.150;4.508;2023-06-22T04:01:58;101644.09;;;19.30;78.41
72465;BME280;60471;52.150;4.508;2023-06-22T04:04:24;101638.06;;;19.39;78.13
72465;BME280;60471;52.150;4.508;2023-06-22T04:06:50;101636.06;;;19.43;77.71
72465;BME280;60471;52.150;4.508;2023-06-22T04:09:16;101633.94;;;19.35;77.66
72465;BME280;60471;52.150;4.508;2023-06-22T04:11:43;101635.41;;;19.39;77.50
72465;BME280;60471;52.150;4.508;2023-06-22T04:14:09;101638.19;;;19.38;77.39
72465;BME280;60471;52.150;4.508;2023-06-22T04:16:35;101627.69;;;19.48;77.72
72465;BME280;60471;52.150;4.508;2023-06-22T04:19:02;101629.03;;;19.53;76.81
72465;BME280;60471;52.150;4.508;2023-06-22T04:21:28;101629.06;;;19.66;76.76
72465;BME280;60471;52.150;4.508;2023-06-22T04:23:54;101624.31;;;19.69;76.41
72465;BME280;60471;52.150;4.508;2023-06-22T04:26:20;101638.13;;;19.76;76.16
72465;BME280;60471;52.150;4.508;2023-06-22T04:28:47;101634.91;;;19.71;76.28
72465;BME280;60471;52.150;4.508;2023-06-22T04:31:21;101636.81;;;19.82;75.86
72465;BME280;60471;52.150;4.508;2023-06-22T04:33:47;101646.91;;;19.78;76.26
72465;BME280;60471;52.150;4.508;2023-06-22T04:36:14;101643.13;;;19.81;76.52
72465;BME280;60471;52.150;4.508;2023-06-22T04:38:40;101648.31;;;19.95;76.52
72465;BME280;60471;52.150;4.508;2023-06-22T04:41:08;101645.91;;;20.03;75.89
72465;BME280;60471;52.150;4.508;2023-06-22T04:43:49;101631.03;;;20.23;75.38
72465;BME280;60471;52.150;4.508;2023-06-22T04:46:20;101646.03;;;20.37;75.06
72465;BME280;60471;52.150;4.508;2023-06-22T04:48:46;101638.06;;;20.48;74.49
72465;BME280;60471;52.150;4.508;2023-06-22T04:51:13;101641.38;;;20.51;73.71
72465;BME280;60471;52.150;4.508;2023-06-22T04:53:39;101639.34;;;20.66;74.14
72465;BME280;60471;52.150;4.508;2023-06-22T04:56:08;101632.56;;;20.84;73.83
72465;BME280;60471;52.150;4.508;2023-06-22T04:58:34;101641.69;;;20.93;72.77
72465;BME280;60471;52.150;4.508;2023-06-22T05:01:00;101647.81;;;20.95;72.02
72465;BME280;60471;52.150;4.508;2023-06-22T05:03:26;101641.47;;;20.96;72.16
72465;BME280;60471;52.150;4.508;2023-06-22T05:05:53;101634.50;;;21.05;72.15
72465;BME280;60471;52.150;4.508;2023-06-22T05:08:19;101643.38;;;21.05;72.11
72465;BME280;60471;52.150;4.508;2023-06-22T05:10:45;101633.28;;;21.09;72.00
72465;BME280;60471;52.150;4.508;2023-06-22T05:13:12;101630.22;;;21.13;72.21
72465;BME280;60471;52.150;4.508;2023-06-22T05:15:38;101629.78;;;21.31;71.86
72465;BME280;60471;52.150;4.508;2023-06-22T05:18:06;101630.47;;;21.55;71.23
72465;BME280;60471;52.150;4.508;2023-06-22T05:20:32;101639.00;;;21.60;70.88
72465;BME280;60471;52.150;4.508;2023-06-22T05:23:02;101636.03;;;21.75;70.45
72465;BME280;60471;52.150;4.508;2023-06-22T05:25:28;101634.59;;;22.03;69.23
72465;BME280;60471;52.150;4.508;2023-06-22T05:27:55;101640.34;;;21.98;68.78
72465;BME280;60471;52.150;4.508;2023-06-22T05:30:22;101640.16;;;21.79;68.83
72465;BME280;60471;52.150;4.508;2023-06-22T05:32:48;101650.81;;;21.69;68.80
72465;BME280;60471;52.150;4.508;2023-06-22T05:35:14;101642.56;;;21.61;70.22
72465;BME280;60471;52.150;4.508;2023-06-22T05:37:40;101640.94;;;21.58;70.47
72465;BME280;60471;52.150;4.508;2023-06-22T05:40:07;101643.59;;;21.69;70.15
72465;BME280;60471;52.150;4.508;2023-06-22T05:42:35;101634.84;;;21.56;70.03
72465;BME280;60471;52.150;4.508;2023-06-22T05:45:01;101636.81;;;21.54;70.54
72465;BME280;60471;52.150;4.508;2023-06-22T05:47:28;101633.16;;;21.55;70.86
72465;BME280;60471;52.150;4.508;2023-06-22T05:49:54;101636.06;;;21.63;70.50
72465;BME280;60471;52.150;4.508;2023-06-22T05:52:20;101644.00;;;21.65;71.15
72465;BME280;60471;52.150;4.508;2023-06-22T05:54:46;101641.28;;;21.76;70.28
72465;BME280;60471;52.150;4.508;2023-06-22T05:57:13;101637.34;;;21.80;70.70
72465;BME280;60471;52.150;4.508;2023-06-22T05:59:39;101643.94;;;21.87;70.22
72465;BME280;60471;52.150;4.508;2023-06-22T06:02:05;101639.63;;;22.07;69.42
72465;BME280;60471;52.150;4.508;2023-06-22T06:04:31;101641.00;;;22.22;68.66
72465;BME280;60471;52.150;4.508;2023-06-22T06:06:58;101634.16;;;22.30;68.84
72465;BME280;60471;52.150;4.508;2023-06-22T06:09:24;101636.44;;;22.34;68.45
72465;BME280;60471;52.150;4.508;2023-06-22T06:11:50;101640.19;;;22.43;68.59
72465;BME280;60471;52.150;4.508;2023-06-22T06:14:16;101637.56;;;22.52;68.45
72465;BME280;60471;52.150;4.508;2023-06-22T06:16:43;101638.75;;;22.60;68.18
72465;BME280;60471;52.150;4.508;2023-06-22T06:19:09;101634.72;;;22.75;67.85
72465;BME280;60471;52.150;4.508;2023-06-22T06:21:35;101635.31;;;22.78;67.08
72465;BME280;60471;52.150;4.508;2023-06-22T06:24:02;101629.22;;;22.76;67.52
72465;BME280;60471;52.150;4.508;2023-06-22T06:26:28;101637.16;;;22.99;66.46
72465;BME280;60471;52.150;4.508;2023-06-22T06:28:56;101629.22;;;22.97;65.78
72465;BME280;60471;52.150;4.508;2023-06-22T06:31:23;101631.72;;;22.89;66.27
72465;BME280;60471;52.150;4.508;2023-06-22T06:33:49;101636.56;;;22.95;66.58
72465;BME280;60471;52.150;4.508;2023-06-22T06:36:16;101635.63;;;23.06;66.79
72465;BME280;60471;52.150;4.508;2023-06-22T06:38:42;101634.06;;;23.34;65.93
72465;BME280;60471;52.150;4.508;2023-06-22T06:41:08;101626.44;;;23.49;64.74
72465;BME280;60471;52.150;4.508;2023-06-22T06:43:34;101627.13;;;23.51;63.34
72465;BME280;60471;52.150;4.508;2023-06-22T06:46:01;101626.50;;;23.58;63.53
72465;BME280;60471;52.150;4.508;2023-06-22T06:48:29;101623.03;;;23.47;64.39
72465;BME280;60471;52.150;4.508;2023-06-22T06:50:55;101626.28;;;23.50;63.12
72465;BME280;60471;52.150;4.508;2023-06-22T06:53:21;101623.56;;;23.40;63.36
72465;BME280;60471;52.150;4.508;2023-06-22T06:55:47;101613.88;;;23.59;62.80
72465;BME280;60471;52.150;4.508;2023-06-22T06:58:14;101616.69;;;23.57;62.20
72465;BME280;60471;52.150;4.508;2023-06-22T07:00:40;101620.97;;;23.69;62.11
72465;BME280;60471;52.150;4.508;2023-06-22T07:03:07;101616.16;;;23.83;60.20
72465;BME280;60471;52.150;4.508;2023-06-22T07:05:34;101614.00;;;23.77;59.95
72465;BME280;60471;52.150;4.508;2023-06-22T07:08:01;101610.78;;;23.83;59.26
72465;BME280;60471;52.150;4.508;2023-06-22T07:10:28;101601.56;;;23.95;59.35
72465;BME280;60471;52.150;4.508;2023-06-22T07:12:55;101613.34;;;24.23;57.52
72465;BME280;60471;52.150;4.508;2023-06-22T07:15:22;101610.22;;;24.37;57.47
72465;BME280;60471;52.150;4.508;2023-06-22T07:17:49;101602.09;;;24.56;55.71
72465;BME280;60471;52.150;4.508;2023-06-22T07:20:15;101602.28;;;24.82;55.70
72465;BME280;60471;52.150;4.508;2023-06-22T07:22:43;101602.44;;;24.81;54.09
72465;BME280;60471;52.150;4.508;2023-06-22T07:25:10;101594.16;;;25.02;53.07
72465;BME280;60471;52.150;4.508;2023-06-22T07:27:56;101595.56;;;25.06;52.64
72465;BME280;60471;52.150;4.508;2023-06-22T07:30:24;101592.44;;;25.01;53.02
72465;BME280;60471;52.150;4.508;2023-06-22T07:32:51;101591.03;;;24.97;53.12
72465;BME280;60471;52.150;4.508;2023-06-22T07:35:17;101589.44;;;25.04;52.18
72465;BME280;60471;52.150;4.508;2023-06-22T07:37:43;101586.56;;;25.15;52.24
72465;BME280;60471;52.150;4.508;2023-06-22T07:40:10;101589.94;;;25.17;52.39
72465;BME280;60471;52.150;4.508;2023-06-22T07:42:37;101586.50;;;25.25;51.95
72465;BME280;60471;52.150;4.508;2023-06-22T07:45:04;101577.97;;;25.47;50.77
72465;BME280;60471;52.150;4.508;2023-06-22T07:47:31;101581.88;;;25.62;49.98
72465;BME280;60471;52.150;4.508;2023-06-22T07:50:01;101578.50;;;25.96;48.79
72465;BME280;60471;52.150;4.508;2023-06-22T07:52:28;101578.19;;;25.81;50.79
72465;BME280;60471;52.150;4.508;2023-06-22T07:54:55;101572.00;;;26.07;50.10
72465;BME280;60471;52.150;4.508;2023-06-22T07:57:21;101572.63;;;26.00;50.08
72465;BME280;60471;52.150;4.508;2023-06-22T07:59:48;101561.72;;;26.10;49.57
72465;BME280;60471;52.150;4.508;2023-06-22T08:02:14;101567.44;;;25.71;49.46
72465;BME280;60471;52.150;4.508;2023-06-22T08:04:41;101557.63;;;25.70;49.50
72465;BME280;60471;52.150;4.508;2023-06-22T08:07:07;101562.88;;;25.90;48.95
72465;BME280;60471;52.150;4.508;2023-06-22T08:09:33;101554.69;;;26.17;48.05
72465;BME280;60471;52.150;4.508;2023-06-22T08:12:00;101546.59;;;25.99;48.51
72465;BME280;60471;52.150;4.508;2023-06-22T08:14:26;101554.59;;;26.27;47.91
72465;BME280;60471;52.150;4.508;2023-06-22T08:16:53;101551.22;;;26.07;49.07
72465;BME280;60471;52.150;4.508;2023-06-22T08:19:19;101545.25;;;26.47;48.43
72465;BME280;60471;52.150;4.508;2023-06-22T08:21:46;101547.16;;;26.55;48.76
72465;BME280;60471;52.150;4.508;2023-06-22T08:24:12;101546.91;;;26.40;48.72
72465;BME280;60471;52.150;4.508;2023-06-22T08:26:38;101542.25;;;26.50;48.08
72465;BME280;60471;52.150;4.508;2023-06-22T08:29:05;101548.53;;;26.59;48.47
72465;BME280;60471;52.150;4.508;2023-06-22T08:31:31;101555.00;;;26.66;47.79
72465;BME280;60471;52.150;4.508;2023-06-22T08:34:00;101553.06;;;26.50;47.58
72465;BME280;60471;52.150;4.508;2023-06-22T08:36:27;101556.31;;;26.54;48.56
72465;BME280;60471;52.150;4.508;2023-06-22T08:38:58;101553.13;;;26.93;47.98
72465;BME280;60471;52.150;4.508;2023-06-22T08:41:27;101542.75;;;27.14;46.97
72465;BME280;60471;52.150;4.508;2023-06-22T08:43:53;101532.28;;;27.27;45.80
72465;BME280;60471;52.150;4.508;2023-06-22T08:46:19;101531.13;;;27.38;44.87
72465;BME280;60471;52.150;4.508;2023-06-22T08:48:49;101532.06;;;27.12;45.30
72465;BME280;60471;52.150;4.508;2023-06-22T08:51:16;101525.25;;;27.67;45.07
72465;BME280;60471;52.150;4.508;2023-06-22T08:53:43;101530.50;;;27.77;45.65
72465;BME280;60471;52.150;4.508;2023-06-22T08:56:11;101532.78;;;27.31;46.40
72465;BME280;60471;52.150;4.508;2023-06-22T08:58:37;101532.25;;;27.19;46.60
72465;BME280;60471;52.150;4.508;2023-06-22T09:01:03;101525.84;;;27.28;46.35
72465;BME280;60471;52.150;4.508;2023-06-22T09:03:30;101533.16;;;27.44;45.54
72465;BME280;60471;52.150;4.508;2023-06-22T09:05:58;101528.56;;;27.44;44.99
72465;BME280;60471;52.150;4.508;2023-06-22T09:08:25;101520.75;;;27.25;45.44
72465;BME280;60471;52.150;4.508;2023-06-22T09:10:51;101524.41;;;27.66;45.53
72465;BME280;60471;52.150;4.508;2023-06-22T09:13:17;101525.78;;;27.95;44.33
72465;BME280;60471;52.150;4.508;2023-06-22T09:15:43;101515.94;;;27.78;44.99
72465;BME280;60471;52.150;4.508;2023-06-22T09:18:10;101505.91;;;28.19;44.40
72465;BME280;60471;52.150;4.508;2023-06-22T09:20:37;101519.06;;;28.54;44.55
72465;BME280;60471;52.150;4.508;2023-06-22T09:23:03;101506.75;;;28.19;45.82
72465;BME280;60471;52.150;4.508;2023-06-22T09:25:30;101513.91;;;28.04;46.31
72465;BME280;60471;52.150;4.508;2023-06-22T09:27:56;101511.34;;;28.35;46.24
72465;BME280;60471;52.150;4.508;2023-06-22T09:30:22;101508.38;;;28.61;44.65
72465;BME280;60471;52.150;4.508;2023-06-22T09:32:48;101513.25;;;28.74;44.69
72465;BME280;60471;52.150;4.508;2023-06-22T09:35:15;101513.53;;;28.95;44.46
72465;BME280;60471;52.150;4.508;2023-06-22T09:37:41;101518.41;;;28.52;45.03
72465;BME280;60471;52.150;4.508;2023-06-22T09:40:08;101516.59;;;28.92;43.13
72465;BME280;60471;52.150;4.508;2023-06-22T09:42:38;101518.38;;;28.69;43.12
72465;BME280;60471;52.150;4.508;2023-06-22T09:45:05;101516.56;;;29.00;43.01
72465;BME280;60471;52.150;4.508;2023-06-22T09:47:32;101510.09;;;29.01;42.96
72465;BME280;60471;52.150;4.508;2023-06-22T09:49:58;101505.47;;;29.10;42.89
72465;BME280;60471;52.150;4.508;2023-06-22T09:52:25;101494.28;;;29.05;43.44
72465;BME280;60471;52.150;4.508;2023-06-22T09:54:52;101491.22;;;28.61;45.16
72465;BME280;60471;52.150;4.508;2023-06-22T09:57:18;101488.69;;;28.59;45.00
72465;BME280;60471;52.150;4.508;2023-06-22T09:59:44;101477.03;;;28.42;44.76
72465;BME280;60471;52.150;4.508;2023-06-22T10:02:10;101483.69;;;28.23;44.75
72465;BME280;60471;52.150;4.508;2023-06-22T10:04:37;101480.66;;;28.02;45.04
72465;BME280;60471;52.150;4.508;2023-06-22T10:07:03;101483.22;;;27.87;44.82
72465;BME280;60471;52.150;4.508;2023-06-22T10:09:29;101479.97;;;28.08;45.12
72465;BME280;60471;52.150;4.508;2023-06-22T10:11:56;101480.78;;;28.25;45.64
72465;BME280;60471;52.150;4.508;2023-06-22T10:14:22;101476.63;;;28.62;44.33
72465;BME280;60471;52.150;4.508;2023-06-22T10:16:48;101484.66;;;28.94;43.96
72465;BME280;60471;52.150;4.508;2023-06-22T10:19:15;101494.97;;;29.30;42.15
72465;BME280;60471;52.150;4.508;2023-06-22T10:21:44;101490.69;;;29.81;41.74
72465;BME280;60471;52.150;4.508;2023-06-22T10:24:10;101492.34;;;29.44;42.07
72465;BME280;60471;52.150;4.508;2023-06-22T10:26:36;101490.59;;;29.52;41.65
72465;BME280;60471;52.150;4.508;2023-06-22T10:29:03;101490.72;;;29.04;42.12
72465;BME280;60471;52.150;4.508;2023-06-22T10:31:29;101492.03;;;28.77;42.38
72465;BME280;60471;52.150;4.508;2023-06-22T10:33:56;101492.03;;;28.77;42.36
72465;BME280;60471;52.150;4.508;2023-06-22T10:36:22;101496.00;;;28.58;42.78
72465;BME280;60471;52.150;4.508;2023-06-22T10:38:49;101489.38;;;28.53;42.92
72465;BME280;60471;52.150;4.508;2023-06-22T10:41:15;101488.94;;;28.25;44.18
72465;BME280;60471;52.150;4.508;2023-06-22T10:43:42;101484.38;;;27.60;46.34
72465;BME280;60471;52.150;4.508;2023-06-22T10:46:09;101487.44;;;27.49;45.39
72465;BME280;60471;52.150;4.508;2023-06-22T10:48:35;101483.84;;;27.57;45.96
72465;BME280;60471;52.150;4.508;2023-06-22T10:51:01;101483.00;;;27.56;46.44
72465;BME280;60471;52.150;4.508;2023-06-22T10:53:27;101489.16;;;27.91;45.64
72465;BME280;60471;52.150;4.508;2023-06-22T10:55:53;101491.19;;;27.81;45.48
72465;BME280;60471;52.150;4.508;2023-06-22T10:58:20;101489.78;;;27.44;46.58
72465;BME280;60471;52.150;4.508;2023-06-22T11:00:46;101493.59;;;27.09;48.10
72465;BME280;60471;52.150;4.508;2023-06-22T11:03:13;101495.19;;;26.85;46.88
72465;BME280;60471;52.150;4.508;2023-06-22T11:05:40;101497.66;;;26.37;48.56
72465;BME280;60471;52.150;4.508;2023-06-22T11:08:07;101495.69;;;26.21;48.36
72465;BME280;60471;52.150;4.508;2023-06-22T11:10:33;101494.53;;;26.49;47.95
72465;BME280;60471;52.150;4.508;2023-06-22T11:12:59;101496.59;;;26.98;46.88
72465;BME280;60471;52.150;4.508;2023-06-22T11:15:25;101491.25;;;27.22;47.14
72465;BME280;60471;52.150;4.508;2023-06-22T11:17:52;101493.16;;;27.46;47.44
72465;BME280;60471;52.150;4.508;2023-06-22T11:20:18;101491.84;;;27.58;46.71
72465;BME280;60471;52.150;4.508;2023-06-22T11:22:45;101499.50;;;27.95;46.95
72465;BME280;60471;52.150;4.508;2023-06-22T11:25:11;101506.06;;;27.60;47.31
72465;BME280;60471;52.150;4.508;2023-06-22T11:27:38;101507.25;;;27.58;47.41
72465;BME280;60471;52.150;4.508;2023-06-22T11:30:05;101495.25;;;27.93;46.98
72465;BME280;60471;52.150;4.508;2023-06-22T11:32:31;101500.00;;;27.75;47.94
72465;BME280;60471;52.150;4.508;2023-06-22T11:34:57;101492.38;;;27.78;46.89
72465;BME280;60471;52.150;4.508;2023-06-22T11:37:24;101487.63;;;27.96;46.63
72465;BME280;60471;52.150;4.508;2023-06-22T11:39:50;101485.91;;;27.87;47.15
72465;BME280;60471;52.150;4.508;2023-06-22T11:42:16;101479.31;;;27.82;46.92
72465;BME280;60471;52.150;4.508;2023-06-22T11:44:42;101475.88;;;27.55;48.13
72465;BME280;60471;52.150;4.508;2023-06-22T11:47:09;101479.78;;;27.28;49.34
72465;BME280;60471;52.150;4.508;2023-06-22T11:49:36;101476.38;;;27.18;49.58
72465;BME280;60471;52.150;4.508;2023-06-22T11:52:02;101477.25;;;26.84;50.33
72465;BME280;60471;52.150;4.508;2023-06-22T11:54:28;101468.97;;;26.86;49.88
72465;BME280;60471;52.150;4.508;2023-06-22T11:56:55;101474.25;;;26.53;51.01
72465;BME280;60471;52.150;4.508;2023-06-22T11:59:21;101474.00;;;26.39;52.25
72465;BME280;60471;52.150;4.508;2023-06-22T12:01:48;101471.63;;;26.78;51.63
72465;BME280;60471;52.150;4.508;2023-06-22T12:04:16;101465.91;;;26.47;52.53
72465;BME280;60471;52.150;4.508;2023-06-22T12:06:43;101460.63;;;26.37;52.62
72465;BME280;60471;52.150;4.508;2023-06-22T12:09:09;101453.28;;;26.55;52.67
72465;BME280;60471;52.150;4.508;2023-06-22T12:11:36;101457.22;;;26.69;52.81
72465;BME280;60471;52.150;4.508;2023-06-22T12:14:02;101447.94;;;26.72;53.09
72465;BME280;60471;52.150;4.508;2023-06-22T12:16:28;101440.53;;;26.90;52.86
72465;BME280;60471;52.150;4.508;2023-06-22T12:18:55;101437.81;;;26.40;54.58
72465;BME280;60471;52.150;4.508;2023-06-22T12:21:21;101444.31;;;26.55;54.35
72465;BME280;60471;52.150;4.508;2023-06-22T12:23:47;101432.81;;;26.27;55.20
72465;BME280;60471;52.150;4.508;2023-06-22T12:26:13;101435.41;;;26.37;55.00
72465;BME280;60471;52.150;4.508;2023-06-22T12:28:40;101438.84;;;26.39;55.00
72465;BME280;60471;52.150;4.508;2023-06-22T12:31:06;101428.94;;;25.78;56.75
72465;BME280;60471;52.150;4.508;2023-06-22T12:33:32;101430.78;;;25.59;56.90
72465;BME280;60471;52.150;4.508;2023-06-22T12:35:59;101427.81;;;25.44;57.70
72465;BME280;60471;52.150;4.508;2023-06-22T12:38:25;101430.47;;;25.80;56.77
72465;BME280;60471;52.150;4.508;2023-06-22T12:40:51;101429.03;;;25.86;56.32
72465;BME280;60471;52.150;4.508;2023-06-22T12:43:18;101426.66;;;25.91;56.49
72465;BME280;60471;52.150;4.508;2023-06-22T12:45:44;101419.53;;;26.08;55.68
72465;BME280;60471;52.150;4.508;2023-06-22T12:48:10;101413.91;;;25.75;56.61
72465;BME280;60471;52.150;4.508;2023-06-22T12:50:38;101416.91;;;25.72;56.76
72465;BME280;60471;52.150;4.508;2023-06-22T12:53:04;101416.50;;;25.85;56.09
72465;BME280;60471;52.150;4.508;2023-06-22T12:55:32;101402.34;;;25.91;55.80
72465;BME280;60471;52.150;4.508;2023-06-22T12:57:58;101408.13;;;25.52;56.51
72465;BME280;60471;52.150;4.508;2023-06-22T13:00:24;101416.94;;;25.36;57.10
72465;BME280;60471;52.150;4.508;2023-06-22T13:02:51;101414.00;;;25.91;55.38
72465;BME280;60471;52.150;4.508;2023-06-22T13:05:17;101410.84;;;26.04;55.51